Time;durP1;ratioP1;P1;durP2;ratioP2;P2;SDS_P1;SDS_P2;PMS_P1;PMS_P2;Temp;Humidity;BMP_temperature;BMP_pressure;BME280_temperature;BME280_humidity;BME280_pressure;Samples;Min_cycle;Max_cycle;Signal;HPM_P1;HPM_P2
2021/08/30 00:01:28;;;;;;;10.70;4.80;;;23.50;99.90;;;;;;5054569;28;20251;-74
2021/08/30 00:03:54;;;;;;;13.53;5.57;;;23.50;99.90;;;;;;5031839;28;20190;-71
2021/08/30 00:06:21;;;;;;;11.90;4.80;;;23.50;99.90;;;;;;5056252;28;20191;-73
2021/08/30 00:08:47;;;;;;;18.77;5.97;;;23.50;99.90;;;;;;5059587;28;20193;-72
2021/08/30 00:11:14;;;;;;;15.40;5.20;;;23.50;99.90;;;;;;5053328;28;20853;-73
2021/08/30 00:13:40;;;;;;;18.65;5.43;;;23.50;99.90;;;;;;5057724;28;20310;-72
2021/08/30 00:16:06;;;;;;;14.95;5.07;;;23.60;99.90;;;;;;5054652;28;20211;-73
2021/08/30 00:18:33;;;;;;;11.50;4.90;;;23.60;99.90;;;;;;5056020;28;20233;-74
2021/08/30 00:20:59;;;;;;;13.50;5.22;;;23.60;99.90;;;;;;5057311;28;20652;-75
2021/08/30 00:23:25;;;;;;;9.43;4.95;;;23.40;99.90;;;;;;5057142;28;20186;-74
2021/08/30 00:25:51;;;;;;;11.93;4.70;;;23.50;99.90;;;;;;5044847;28;20663;-72
2021/08/30 00:28:18;;;;;;;15.73;5.38;;;23.50;99.90;;;;;;5071893;28;20191;-74
2021/08/30 00:30:44;;;;;;;15.17;4.87;;;23.50;99.90;;;;;;5058081;28;20289;-72
2021/08/30 00:33:11;;;;;;;11.80;5.10;;;23.40;99.90;;;;;;5053749;28;20202;-75
2021/08/30 00:35:37;;;;;;;10.50;4.83;;;23.40;99.90;;;;;;5030576;28;20719;-72
2021/08/30 00:38:05;;;;;;;12.35;4.88;;;23.40;99.90;;;;;;5041372;28;20663;-74
2021/08/30 00:40:32;;;;;;;11.37;4.73;;;23.40;99.90;;;;;;5054425;28;20194;-72
2021/08/30 00:43:01;;;;;;;12.57;5.40;;;23.40;99.90;;;;;;5058281;28;20198;-75
2021/08/30 00:45:28;;;;;;;14.93;5.23;;;23.40;99.90;;;;;;5056666;28;20191;-73
2021/08/30 00:47:55;;;;;;;15.90;5.47;;;23.50;99.90;;;;;;5038510;28;20205;-75
2021/08/30 00:50:22;;;;;;;14.90;5.17;;;23.50;99.90;;;;;;5039488;28;20240;-74
2021/08/30 00:52:51;;;;;;;12.20;5.33;;;23.60;99.90;;;;;;5054987;28;20293;-72
2021/08/30 00:55:18;;;;;;;17.97;5.67;;;23.50;99.90;;;;;;5072196;28;20207;-72
2021/08/30 00:57:46;;;;;;;11.85;5.05;;;23.50;99.90;;;;;;5042126;28;20193;-74
2021/08/30 01:00:14;;;;;;;14.30;5.32;;;23.40;99.90;;;;;;5055296;28;20203;-73
2021/08/30 01:02:42;;;;;;;12.37;4.37;;;23.40;99.90;;;;;;5057873;28;20255;-73
2021/08/30 01:05:13;;;;;;;12.50;5.40;;;23.30;99.90;;;;;;5045057;28;20784;-73
2021/08/30 01:07:58;;;;;;;14.30;4.90;;;23.20;99.90;;;;;;5065241;28;20198;-72
2021/08/30 01:10:50;;;;;;;13.73;5.33;;;23.20;99.90;;;;;;5036182;28;20887;-74
2021/08/30 01:13:40;;;;;;;17.88;6.18;;;23.20;99.90;;;;;;5058456;28;20715;-71
2021/08/30 01:16:12;;;;;;;12.80;5.38;;;23.30;99.90;;;;;;5057306;28;20222;-72
2021/08/30 01:18:41;;;;;;;13.57;5.70;;;23.30;99.90;;;;;;5059257;28;20187;-72
2021/08/30 01:21:27;;;;;;;15.23;5.53;;;23.30;99.90;;;;;;5047789;28;20187;-72
2021/08/30 01:24:10;;;;;;;15.23;5.57;;;23.20;99.90;;;;;;5058693;28;20198;-74
2021/08/30 01:26:49;;;;;;;18.57;5.67;;;23.20;99.90;;;;;;5059425;28;20191;-73
2021/08/30 01:29:33;;;;;;;17.00;5.33;;;23.20;99.90;;;;;;5042452;28;20277;-74
2021/08/30 01:32:09;;;;;;;14.23;5.20;;;23.20;99.90;;;;;;5058123;28;20258;-71
2021/08/30 01:34:38;;;;;;;10.77;5.10;;;23.10;99.90;;;;;;5062077;28;20207;-75
2021/08/30 01:37:05;;;;;;;16.83;5.83;;;23.10;99.90;;;;;;5029169;28;22242;-73
2021/08/30 01:39:32;;;;;;;11.20;5.10;;;23.00;99.90;;;;;;5061958;28;20244;-73
2021/08/30 01:42:01;;;;;;;9.33;5.00;;;22.90;99.90;;;;;;5059019;28;20749;-74
2021/08/30 01:44:29;;;;;;;17.63;4.93;;;22.90;99.90;;;;;;5062997;28;20221;-73
2021/08/30 01:46:57;;;;;;;13.53;4.97;;;22.90;99.90;;;;;;5041363;28;20734;-72
2021/08/30 01:49:29;;;;;;;14.43;5.57;;;22.90;99.90;;;;;;5043074;28;21336;-72
2021/08/30 01:51:58;;;;;;;15.57;5.40;;;22.90;99.90;;;;;;5039024;28;20241;-72
2021/08/30 01:54:25;;;;;;;15.57;5.37;;;22.80;99.90;;;;;;5059444;28;20184;-73
2021/08/30 01:56:56;;;;;;;15.33;5.80;;;22.90;99.90;;;;;;5059409;28;20191;-75
2021/08/30 02:02:12;;;;;;;18.07;6.17;;;22.90;99.90;;;;;;5056930;28;20191;-74
2021/08/30 02:04:39;;;;;;;19.87;5.67;;;22.80;99.90;;;;;;5060317;28;20195;-74
2021/08/30 02:07:07;;;;;;;14.43;5.57;;;22.80;99.90;;;;;;5049351;28;20191;-74
2021/08/30 02:09:33;;;;;;;11.00;5.17;;;22.70;99.90;;;;;;5056193;28;20259;-72
2021/08/30 02:12:00;;;;;;;12.70;5.43;;;22.70;99.90;;;;;;5056576;28;20191;-75
2021/08/30 02:14:26;;;;;;;12.13;5.20;;;22.70;99.90;;;;;;5054883;28;20269;-73
2021/08/30 02:17:01;;;;;;;12.53;5.30;;;22.80;99.90;;;;;;5043713;28;20179;-72
2021/08/30 02:20:10;;;;;;;13.77;5.33;;;22.70;99.90;;;;;;5059747;28;20187;-72
2021/08/30 02:22:43;;;;;;;11.43;5.13;;;22.70;99.90;;;;;;5019396;28;20755;-71
2021/08/30 02:25:18;;;;;;;15.77;5.50;;;22.70;99.90;;;;;;5004329;28;20196;-73
2021/08/30 02:27:48;;;;;;;12.43;5.00;;;22.70;99.90;;;;;;5054645;28;20276;-75
2021/08/30 02:30:31;;;;;;;13.33;4.87;;;22.60;99.90;;;;;;5062423;28;20187;-74
2021/08/30 02:33:04;;;;;;;11.70;4.93;;;22.60;99.90;;;;;;5046692;28;20195;-73
2021/08/30 02:35:37;;;;;;;12.20;4.67;;;22.70;99.90;;;;;;5046875;28;20214;-73
2021/08/30 02:38:04;;;;;;;12.13;5.03;;;22.60;99.90;;;;;;5054185;28;20205;-75
2021/08/30 02:40:32;;;;;;;12.40;4.93;;;22.70;99.90;;;;;;5053162;28;20225;-72
2021/08/30 02:43:02;;;;;;;14.17;5.33;;;22.70;99.90;;;;;;5060429;28;20695;-75
2021/08/30 02:45:30;;;;;;;12.60;4.87;;;22.70;99.90;;;;;;5059812;28;20683;-73
2021/08/30 02:47:59;;;;;;;12.97;5.53;;;22.70;99.90;;;;;;5059923;28;20191;-73
2021/08/30 02:50:28;;;;;;;13.30;4.83;;;22.80;99.90;;;;;;5061979;28;20247;-73
2021/08/30 02:52:58;;;;;;;16.43;5.30;;;22.70;99.90;;;;;;5057735;28;20395;-74
2021/08/30 02:55:26;;;;;;;11.47;5.07;;;22.70;99.90;;;;;;5057124;28;20763;-72
2021/08/30 02:57:52;;;;;;;14.13;5.23;;;22.70;99.90;;;;;;5063040;28;20609;-75
2021/08/30 03:00:19;;;;;;;14.60;5.63;;;22.70;99.90;;;;;;5058289;28;20525;-72
2021/08/30 03:02:47;;;;;;;9.83;4.83;;;22.60;99.90;;;;;;5060028;28;20274;-74
2021/08/30 03:05:14;;;;;;;15.63;5.10;;;22.60;99.90;;;;;;5057797;28;20240;-74
2021/08/30 03:07:42;;;;;;;12.63;4.80;;;22.60;99.90;;;;;;5044278;28;20667;-72
2021/08/30 03:10:09;;;;;;;10.77;5.23;;;22.50;99.90;;;;;;5055125;28;20217;-72
2021/08/30 03:12:42;;;;;;;11.20;5.17;;;22.50;99.90;;;;;;5063438;28;20634;-74
2021/08/30 03:15:16;;;;;;;11.13;5.10;;;22.50;99.90;;;;;;5060100;28;20706;-73
2021/08/30 03:17:45;;;;;;;13.83;4.80;;;22.50;99.90;;;;;;5062604;28;20228;-72
2021/08/30 03:20:19;;;;;;;10.77;5.33;;;22.50;99.90;;;;;;5047407;28;20210;-75
2021/08/30 03:22:49;;;;;;;12.13;4.87;;;22.60;99.90;;;;;;5043949;28;20290;-72
2021/08/30 03:25:19;;;;;;;16.20;5.50;;;22.70;99.90;;;;;;5060557;28;20230;-74
2021/08/30 03:27:49;;;;;;;16.53;5.43;;;22.70;99.90;;;;;;5063101;28;20202;-72
2021/08/30 03:30:17;;;;;;;12.37;4.80;;;22.70;99.90;;;;;;5060335;28;20524;-74
2021/08/30 03:32:46;;;;;;;11.83;5.60;;;22.70;99.90;;;;;;5045601;28;20191;-73
2021/08/30 03:35:14;;;;;;;10.60;4.87;;;22.60;99.90;;;;;;5056845;28;20664;-73
2021/08/30 03:37:42;;;;;;;9.20;4.83;;;22.60;99.90;;;;;;5063711;28;20179;-71
2021/08/30 03:40:14;;;;;;;10.93;5.27;;;22.50;99.90;;;;;;5070746;28;20556;-74
2021/08/30 03:42:42;;;;;;;12.33;5.70;;;22.50;99.90;;;;;;5057000;28;20187;-73
2021/08/30 03:45:12;;;;;;;12.30;4.77;;;22.50;99.90;;;;;;5062035;28;20186;-72
2021/08/30 03:47:39;;;;;;;12.83;4.90;;;22.40;99.90;;;;;;5060491;28;20274;-73
2021/08/30 03:50:07;;;;;;;9.93;4.90;;;22.40;99.90;;;;;;5058330;28;20198;-75
2021/08/30 03:52:39;;;;;;;8.87;5.00;;;22.40;99.90;;;;;;5058217;28;20214;-74
2021/08/30 03:55:10;;;;;;;13.90;5.20;;;22.50;99.90;;;;;;5059105;28;20195;-72
2021/08/30 03:57:38;;;;;;;8.30;5.00;;;22.60;99.90;;;;;;5045374;28;20878;-73
2021/08/30 04:00:08;;;;;;;10.33;4.80;;;22.70;99.90;;;;;;5060030;28;20187;-74
2021/08/30 04:02:37;;;;;;;16.20;4.90;;;22.80;99.90;;;;;;5043175;28;20311;-72
2021/08/30 04:05:05;;;;;;;13.97;5.37;;;22.80;99.90;;;;;;5060791;28;20187;-73
2021/08/30 04:07:34;;;;;;;14.33;5.40;;;22.90;99.90;;;;;;5056557;28;20188;-74
2021/08/30 04:10:01;;;;;;;10.07;4.47;;;22.90;99.90;;;;;;5058527;28;20209;-74
2021/08/30 04:12:28;;;;;;;16.60;5.80;;;22.90;99.90;;;;;;5054760;28;20197;-72
2021/08/30 04:14:56;;;;;;;11.77;5.13;;;23.00;99.90;;;;;;5057321;28;20207;-73
2021/08/30 04:17:22;;;;;;;15.30;5.57;;;22.90;99.90;;;;;;5039348;28;20188;-74
2021/08/30 04:19:49;;;;;;;13.57;4.97;;;22.80;99.90;;;;;;5043819;28;20187;-73
2021/08/30 04:22:15;;;;;;;12.57;5.13;;;22.70;99.90;;;;;;5058828;28;20286;-73
2021/08/30 04:24:41;;;;;;;10.23;4.80;;;22.70;99.90;;;;;;5045066;28;20198;-72
2021/08/30 04:27:08;;;;;;;14.97;4.63;;;22.70;99.90;;;;;;5042465;28;20179;-73
2021/08/30 04:29:35;;;;;;;12.00;5.10;;;22.80;99.90;;;;;;5042953;28;20196;-73
2021/08/30 04:32:01;;;;;;;11.60;5.13;;;22.90;99.90;;;;;;5040078;28;20245;-75
2021/08/30 04:34:28;;;;;;;10.07;4.47;;;22.90;99.90;;;;;;5040550;28;20708;-74
2021/08/30 04:36:54;;;;;;;10.47;5.10;;;22.90;99.90;;;;;;5060767;28;20190;-74
2021/08/30 04:39:21;;;;;;;10.83;4.87;;;22.90;99.90;;;;;;5043786;28;20182;-73
2021/08/30 04:41:47;;;;;;;16.00;4.70;;;22.90;99.90;;;;;;5051381;28;20190;-74
2021/08/30 04:44:14;;;;;;;14.37;5.30;;;23.00;99.90;;;;;;5058416;28;20273;-75
2021/08/30 04:46:40;;;;;;;13.97;4.83;;;23.00;99.90;;;;;;5060505;28;20187;-73
2021/08/30 04:49:06;;;;;;;13.97;5.73;;;23.00;99.90;;;;;;5061376;28;20195;-72
2021/08/30 04:51:33;;;;;;;16.03;5.10;;;23.10;99.90;;;;;;5064947;28;20210;-72
2021/08/30 04:53:59;;;;;;;10.40;5.13;;;23.10;99.90;;;;;;5060935;28;20191;-73
2021/08/30 04:56:25;;;;;;;13.80;5.30;;;23.10;99.90;;;;;;5062082;28;20709;-73
2021/08/30 04:58:52;;;;;;;12.32;5.25;;;23.20;99.90;;;;;;5063599;28;20195;-76
2021/08/30 05:01:18;;;;;;;12.82;5.32;;;23.30;99.90;;;;;;5063509;28;20535;-73
2021/08/30 05:03:45;;;;;;;13.10;5.53;;;23.40;99.90;;;;;;5062567;28;20191;-73
2021/08/30 05:06:11;;;;;;;12.45;5.22;;;23.40;99.90;;;;;;5059078;28;20650;-73
2021/08/30 05:08:37;;;;;;;16.55;4.88;;;23.50;99.90;;;;;;5046319;28;20199;-72
2021/08/30 05:11:04;;;;;;;15.75;5.40;;;23.60;99.90;;;;;;5062387;28;20230;-72
2021/08/30 05:13:30;;;;;;;11.63;5.07;;;23.60;99.90;;;;;;5039409;28;20205;-72
2021/08/30 05:15:57;;;;;;;15.32;5.82;;;23.60;99.90;;;;;;5068782;28;20559;-72
2021/08/30 05:18:24;;;;;;;11.48;4.63;;;23.70;99.90;;;;;;5059138;28;20179;-73
2021/08/30 05:20:52;;;;;;;11.67;4.80;;;23.70;99.90;;;;;;5064449;28;20190;-73
2021/08/30 05:23:19;;;;;;;12.63;4.97;;;23.70;99.90;;;;;;5064370;28;20183;-73
2021/08/30 05:25:45;;;;;;;16.30;5.10;;;23.80;99.90;;;;;;5063636;28;20274;-72
2021/08/30 05:28:12;;;;;;;13.65;4.55;;;23.90;99.90;;;;;;5048481;28;21033;-72
2021/08/30 05:30:38;;;;;;;10.38;4.40;;;24.00;99.90;;;;;;5048134;28;20183;-72
2021/08/30 05:33:04;;;;;;;12.73;4.90;;;24.00;99.90;;;;;;5063403;28;20655;-75
2021/08/30 05:35:32;;;;;;;13.18;5.05;;;24.00;99.90;;;;;;5046499;28;20218;-71
2021/08/30 05:37:58;;;;;;;15.70;5.60;;;24.00;99.90;;;;;;5062142;28;20183;-73
2021/08/30 05:40:24;;;;;;;11.15;4.82;;;24.00;99.90;;;;;;5062205;28;20191;-73
2021/08/30 05:42:51;;;;;;;14.32;5.15;;;24.10;99.90;;;;;;5058701;28;20277;-72
2021/08/30 05:45:17;;;;;;;16.63;5.15;;;24.10;99.90;;;;;;5051761;28;20877;-74
2021/08/30 05:47:43;;;;;;;16.52;4.70;;;24.10;99.90;;;;;;5062545;28;20222;-73
2021/08/30 05:50:10;;;;;;;14.48;4.93;;;24.10;99.90;;;;;;5060679;28;20187;-73
2021/08/30 05:52:37;;;;;;;13.80;5.18;;;24.20;99.90;;;;;;5061743;28;20294;-71
2021/08/30 05:55:04;;;;;;;15.70;4.82;;;24.20;99.90;;;;;;5058502;28;20215;-73
2021/08/30 05:57:31;;;;;;;14.27;4.90;;;24.30;99.90;;;;;;5062460;28;20240;-72
2021/08/30 05:59:57;;;;;;;11.15;4.35;;;24.30;99.90;;;;;;5060174;28;20282;-72
2021/08/30 06:02:25;;;;;;;10.68;4.75;;;24.30;99.90;;;;;;5076124;28;20191;-72
2021/08/30 06:04:51;;;;;;;12.55;4.70;;;24.30;99.90;;;;;;5062069;28;20216;-73
2021/08/30 06:07:18;;;;;;;16.98;5.07;;;24.30;99.90;;;;;;5059049;28;20191;-73
2021/08/30 06:09:44;;;;;;;11.80;4.40;;;24.40;99.90;;;;;;5061182;28;20191;-72
2021/08/30 06:12:11;;;;;;;12.65;4.95;;;24.40;99.90;;;;;;5061542;28;20190;-73
2021/08/30 06:14:37;;;;;;;12.10;4.93;;;24.40;99.90;;;;;;5056226;28;20182;-74
2021/08/30 06:17:04;;;;;;;12.82;4.85;;;24.50;99.90;;;;;;5056735;28;20180;-73
2021/08/30 06:19:31;;;;;;;14.82;5.22;;;24.60;99.90;;;;;;5045182;28;20179;-73
2021/08/30 06:21:58;;;;;;;13.68;4.63;;;24.70;99.90;;;;;;5058565;28;20186;-76
2021/08/30 06:24:25;;;;;;;12.98;4.55;;;24.70;99.90;;;;;;5063985;28;20464;-72
2021/08/30 06:26:53;;;;;;;12.07;4.65;;;24.70;99.90;;;;;;5043733;28;20195;-74
2021/08/30 06:29:19;;;;;;;11.82;4.88;;;24.80;99.90;;;;;;5046308;28;20379;-72
2021/08/30 06:31:45;;;;;;;11.18;4.82;;;24.80;99.90;;;;;;5062193;28;20249;-74
2021/08/30 06:34:12;;;;;;;13.10;4.32;;;24.80;99.90;;;;;;5061819;28;20739;-73
2021/08/30 06:36:38;;;;;;;14.43;4.78;;;24.80;99.90;;;;;;5060985;28;20207;-74
2021/08/30 06:39:04;;;;;;;15.10;4.50;;;24.90;99.90;;;;;;5043543;28;20206;-73
2021/08/30 06:41:31;;;;;;;25.20;4.97;;;24.90;99.90;;;;;;5062400;28;20527;-72
2021/08/30 06:43:57;;;;;;;10.63;5.10;;;25.00;99.90;;;;;;5060859;28;22076;-76
2021/08/30 06:46:24;;;;;;;20.45;5.72;;;25.00;99.90;;;;;;5050311;28;20250;-73
2021/08/30 06:48:50;;;;;;;10.40;4.63;;;25.10;99.90;;;;;;5048374;28;20298;-73
2021/08/30 06:51:16;;;;;;;13.80;4.82;;;25.10;99.90;;;;;;5055735;28;20329;-74
2021/08/30 06:53:42;;;;;;;18.95;5.10;;;25.20;99.90;;;;;;5044347;28;20520;-73
2021/08/30 06:56:09;;;;;;;12.85;4.63;;;25.30;99.90;;;;;;5039499;28;20287;-74
2021/08/30 06:58:35;;;;;;;11.52;4.60;;;25.20;99.90;;;;;;5061027;28;20243;-73
2021/08/30 07:01:02;;;;;;;17.30;5.00;;;25.30;99.90;;;;;;5063997;28;20229;-75
2021/08/30 07:03:28;;;;;;;12.32;4.75;;;25.40;99.90;;;;;;5045906;28;20187;-74
2021/08/30 07:05:54;;;;;;;9.23;4.47;;;25.40;99.90;;;;;;5043839;28;20632;-73
2021/08/30 07:08:21;;;;;;;15.68;4.88;;;25.40;99.90;;;;;;5061175;28;20849;-74
2021/08/30 07:10:47;;;;;;;11.90;4.75;;;25.50;99.90;;;;;;5042061;28;20195;-73
2021/08/30 07:13:14;;;;;;;11.63;5.15;;;25.50;99.90;;;;;;5060989;28;20198;-73
2021/08/30 07:15:40;;;;;;;15.68;5.03;;;25.60;99.90;;;;;;5055334;28;20210;-74
2021/08/30 07:18:06;;;;;;;16.77;5.22;;;25.70;99.90;;;;;;5052681;28;20198;-75
2021/08/30 07:20:33;;;;;;;13.02;4.85;;;25.90;99.90;;;;;;5061315;28;20215;-74
2021/08/30 07:23:00;;;;;;;12.95;4.60;;;25.90;99.90;;;;;;5058038;28;20622;-74
2021/08/30 07:25:27;;;;;;;16.13;4.95;;;25.90;99.90;;;;;;5057499;28;20194;-74
2021/08/30 07:27:53;;;;;;;12.88;4.63;;;25.90;99.90;;;;;;5045393;28;20818;-75
2021/08/30 07:30:20;;;;;;;12.50;4.38;;;26.10;99.90;;;;;;5059601;28;20821;-76
2021/08/30 07:32:46;;;;;;;18.52;4.90;;;26.20;99.90;;;;;;5056547;28;20187;-74
2021/08/30 07:35:14;;;;;;;12.40;4.55;;;26.20;99.90;;;;;;5061142;28;20302;-73
2021/08/30 07:37:40;;;;;;;15.15;4.57;;;26.20;99.90;;;;;;5060170;28;20635;-74
2021/08/30 07:40:08;;;;;;;10.48;4.40;;;26.20;99.90;;;;;;5059804;28;20270;-73
2021/08/30 07:42:35;;;;;;;12.80;4.47;;;26.20;99.90;;;;;;5057734;28;20201;-75
2021/08/30 07:45:01;;;;;;;14.80;4.30;;;26.30;99.90;;;;;;5060235;28;20429;-75
2021/08/30 07:47:28;;;;;;;13.43;4.50;;;26.30;99.90;;;;;;5053678;28;21611;-74
2021/08/30 07:49:54;;;;;;;16.77;5.07;;;26.40;99.90;;;;;;5040878;28;20839;-75
2021/08/30 07:52:21;;;;;;;13.25;4.50;;;26.60;99.90;;;;;;5059125;28;20282;-75
2021/08/30 07:54:53;;;;;;;9.93;4.10;;;26.60;99.90;;;;;;5058754;28;20267;-76
2021/08/30 07:57:19;;;;;;;12.18;4.57;;;26.60;99.90;;;;;;5042445;28;20541;-75
2021/08/30 07:59:45;;;;;;;14.90;4.43;;;26.80;99.90;;;;;;5055979;28;20205;-75
2021/08/30 08:02:12;;;;;;;11.00;4.57;;;26.80;99.90;;;;;;5044610;28;20203;-74
2021/08/30 08:04:38;;;;;;;11.95;4.60;;;26.90;99.90;;;;;;5040580;28;20192;-73
2021/08/30 08:07:06;;;;;;;11.18;4.50;;;27.00;99.90;;;;;;5058479;28;20648;-73
2021/08/30 08:09:33;;;;;;;14.60;4.25;;;26.90;99.90;;;;;;5041301;28;20559;-74
2021/08/30 08:11:59;;;;;;;11.88;4.18;;;26.90;99.90;;;;;;5040914;28;20187;-75
2021/08/30 08:14:26;;;;;;;9.80;3.90;;;26.90;99.90;;;;;;5059367;28;20267;-74
2021/08/30 08:16:52;;;;;;;12.02;4.30;;;26.80;99.90;;;;;;5059852;28;20687;-73
2021/08/30 08:19:19;;;;;;;13.75;4.35;;;26.90;99.90;;;;;;5053312;28;20220;-73
2021/08/30 08:21:47;;;;;;;13.40;4.20;;;27.10;99.90;;;;;;5043315;28;20190;-73
2021/08/30 08:24:13;;;;;;;13.40;4.35;;;27.20;99.90;;;;;;5038638;28;20232;-73
2021/08/30 08:26:40;;;;;;;12.52;4.18;;;27.50;99.90;;;;;;5043024;28;20983;-74
2021/08/30 08:29:07;;;;;;;10.60;3.80;;;27.60;99.90;;;;;;5059603;28;20195;-74
2021/08/30 08:31:33;;;;;;;14.43;4.70;;;27.60;99.90;;;;;;5057296;28;20187;-73
2021/08/30 08:34:01;;;;;;;14.55;4.55;;;27.80;99.90;;;;;;5040082;28;20191;-72
2021/08/30 08:36:27;;;;;;;13.45;4.03;;;27.70;99.90;;;;;;5040724;28;20416;-73
2021/08/30 08:38:54;;;;;;;17.90;4.88;;;27.80;99.90;;;;;;5044002;28;20179;-75
2021/08/30 08:41:20;;;;;;;19.75;4.10;;;27.70;99.90;;;;;;5060696;28;20202;-73
2021/08/30 08:43:54;;;;;;;12.98;4.30;;;27.90;99.90;;;;;;5060348;28;20201;-74
2021/08/30 08:46:23;;;;;;;12.95;4.35;;;28.00;99.90;;;;;;5059234;28;20229;-74
2021/08/30 08:48:49;;;;;;;7.88;3.85;;;28.30;99.90;;;;;;5054822;28;20195;-73
2021/08/30 08:51:16;;;;;;;9.05;4.07;;;28.40;99.90;;;;;;5034609;28;20203;-73
2021/08/30 08:53:45;;;;;;;12.82;3.72;;;28.50;99.90;;;;;;5056747;28;20229;-75
2021/08/30 08:56:23;;;;;;;12.57;4.00;;;28.50;99.90;;;;;;5058828;28;20354;-72
2021/08/30 08:58:49;;;;;;;12.98;4.05;;;28.40;99.90;;;;;;5044059;28;20277;-73
2021/08/30 09:01:21;;;;;;;13.02;4.18;;;28.70;99.90;;;;;;5038625;28;20245;-73
2021/08/30 09:03:51;;;;;;;10.93;4.15;;;28.80;99.90;;;;;;5061015;28;20282;-72
2021/08/30 09:06:30;;;;;;;7.80;3.70;;;28.80;99.90;;;;;;5058656;28;20188;-73
2021/08/30 09:09:14;;;;;;;16.58;4.18;;;28.80;99.90;;;;;;5041821;28;20197;-73
2021/08/30 09:11:50;;;;;;;14.15;4.22;;;28.70;99.90;;;;;;5060564;28;20191;-72
2021/08/30 09:14:20;;;;;;;13.45;4.07;;;28.90;99.90;;;;;;5059836;28;20266;-74
2021/08/30 09:17:09;;;;;;;13.38;3.75;;;28.90;99.90;;;;;;5042750;28;20215;-73
2021/08/30 09:19:37;;;;;;;15.02;3.88;;;29.00;99.90;;;;;;5052569;28;20198;-75
2021/08/30 09:22:06;;;;;;;12.32;4.10;;;29.20;99.90;;;;;;5055417;28;20221;-73
2021/08/30 09:24:34;;;;;;;13.63;4.32;;;29.20;99.90;;;;;;5043382;28;20240;-74
2021/08/30 09:27:12;;;;;;;14.95;4.30;;;29.00;99.90;;;;;;5056656;28;20179;-74
2021/08/30 09:29:41;;;;;;;11.07;3.83;;;29.00;99.90;;;;;;5041573;28;20188;-74
2021/08/30 09:32:13;;;;;;;12.88;4.35;;;29.00;99.90;;;;;;5059417;28;20513;-73
2021/08/30 09:34:57;;;;;;;14.32;4.05;;;28.80;99.90;;;;;;5064486;28;20182;-73
2021/08/30 09:37:26;;;;;;;11.93;3.95;;;28.80;99.90;;;;;;5062589;28;20205;-72
2021/08/30 09:39:58;;;;;;;15.38;4.38;;;28.90;99.90;;;;;;5064495;28;20182;-74
2021/08/30 09:42:27;;;;;;;14.15;3.72;;;29.00;99.90;;;;;;5046162;28;20655;-73
2021/08/30 09:45:06;;;;;;;13.38;3.90;;;29.10;99.90;;;;;;5060640;28;20186;-73
2021/08/30 09:47:32;;;;;;;11.98;3.92;;;29.20;99.90;;;;;;5045906;28;20197;-74
2021/08/30 09:49:59;;;;;;;9.95;3.92;;;29.20;99.90;;;;;;5043577;28;20183;-76
2021/08/30 09:52:25;;;;;;;50.03;5.65;;;29.30;99.90;;;;;;5055023;28;20211;-73
2021/08/30 09:54:54;;;;;;;10.80;3.83;;;29.40;99.90;;;;;;5062154;28;20179;-73
2021/08/30 09:57:26;;;;;;;10.25;3.92;;;29.70;99.90;;;;;;5058902;28;20246;-73
2021/08/30 09:59:56;;;;;;;16.13;4.45;;;29.90;99.90;;;;;;5060604;28;20187;-73
2021/08/30 10:02:29;;;;;;;18.15;4.30;;;29.90;99.90;;;;;;5060413;28;20210;-73
2021/08/30 10:04:59;;;;;;;10.75;3.30;;;29.80;99.90;;;;;;5057986;28;20188;-72
2021/08/30 10:07:29;;;;;;;13.98;4.00;;;30.00;99.90;;;;;;5059033;28;20187;-73
2021/08/30 10:10:00;;;;;;;10.80;3.90;;;30.10;99.90;;;;;;5060984;28;20199;-73
2021/08/30 10:12:27;;;;;;;14.80;4.15;;;30.10;99.90;;;;;;5061472;28;20261;-74
2021/08/30 10:14:55;;;;;;;10.45;3.92;;;30.70;99.90;;;;;;5058860;28;20214;-74
2021/08/30 10:17:31;;;;;;;10.73;3.45;;;33.20;99.90;;;;;;5062513;28;20181;-73
2021/08/30 10:20:01;;;;;;;13.90;4.15;;;34.90;99.90;;;;;;5040799;28;20191;-73
2021/08/30 10:22:28;;;;;;;12.02;4.25;;;35.50;99.90;;;;;;5036659;28;20202;-73
2021/08/30 10:24:55;;;;;;;11.68;3.80;;;34.00;99.90;;;;;;5062985;28;20195;-72
2021/08/30 10:27:33;;;;;;;8.18;3.47;;;32.90;99.90;;;;;;5059498;28;20188;-73
2021/08/30 10:30:11;;;;;;;17.90;3.92;;;32.10;99.90;;;;;;5043436;28;20276;-73
2021/08/30 10:32:43;;;;;;;16.85;4.47;;;31.80;99.90;;;;;;5063215;28;20252;-73
2021/08/30 10:35:17;;;;;;;11.90;4.03;;;31.70;99.90;;;;;;5062784;28;20548;-73
2021/08/30 10:38:00;;;;;;;14.65;3.83;;;31.80;99.90;;;;;;5076038;28;20182;-72
2021/08/30 10:40:32;;;;;;;11.65;3.70;;;32.50;99.90;;;;;;5057935;28;20175;-72
2021/08/30 10:43:14;;;;;;;13.43;3.88;;;33.90;99.90;;;;;;5047107;28;20221;-72
2021/08/30 10:45:58;;;;;;;12.27;3.88;;;34.30;99.90;;;;;;5043131;28;20190;-74
2021/08/30 10:48:40;;;;;;;18.05;4.45;;;32.50;99.90;;;;;;5058222;28;20182;-73
2021/08/30 10:51:20;;;;;;;16.08;4.18;;;31.70;99.90;;;;;;5060074;28;20784;-72
2021/08/30 10:53:59;;;;;;;14.52;4.50;;;31.10;99.90;;;;;;5052871;28;20195;-72
2021/08/30 10:56:35;;;;;;;12.55;3.92;;;30.70;99.90;;;;;;5061465;28;22469;-72
2021/08/30 10:59:06;;;;;;;10.95;3.58;;;30.80;99.90;;;;;;5060743;28;20265;-73
2021/08/30 11:01:50;;;;;;;13.20;4.10;;;30.60;99.90;;;;;;5061738;28;20184;-73
2021/08/30 11:04:17;;;;;;;17.67;4.07;;;30.70;99.90;;;;;;5056107;28;20984;-75
2021/08/30 11:06:44;;;;;;;9.77;3.65;;;30.70;99.90;;;;;;5058674;28;20183;-73
2021/08/30 11:09:18;;;;;;;15.65;3.88;;;30.60;99.90;;;;;;5057331;28;20230;-73
2021/08/30 11:11:45;;;;;;;10.23;3.67;;;30.60;99.90;;;;;;5061413;28;20191;-73
2021/08/30 11:14:12;;;;;;;12.52;3.47;;;30.60;99.90;;;;;;5059927;28;20276;-73
2021/08/30 11:16:40;;;;;;;14.75;4.05;;;30.40;99.90;;;;;;5057317;28;20207;-73
2021/08/30 11:19:10;;;;;;;9.38;3.53;;;30.50;99.90;;;;;;5059865;28;20183;-73
2021/08/30 11:21:47;;;;;;;16.15;3.63;;;30.40;99.90;;;;;;5057116;28;20187;-72
2021/08/30 11:24:45;;;;;;;10.60;3.88;;;30.30;99.90;;;;;;5054085;28;20776;-72
2021/08/30 11:27:24;;;;;;;13.70;3.40;;;30.30;99.90;;;;;;5041784;28;20191;-73
2021/08/30 11:29:57;;;;;;;10.70;3.90;;;30.30;99.90;;;;;;5059023;28;20194;-73
2021/08/30 11:32:29;;;;;;;11.23;3.38;;;30.60;99.90;;;;;;5063448;28;20293;-73
2021/08/30 11:34:58;;;;;;;13.85;3.70;;;30.60;99.90;;;;;;5058804;28;20187;-72
2021/08/30 11:37:33;;;;;;;9.15;3.33;;;30.60;99.90;;;;;;5058989;28;20202;-73
2021/08/30 11:40:09;;;;;;;12.18;3.65;;;30.50;99.90;;;;;;5057873;28;20724;-72
2021/08/30 11:42:37;;;;;;;13.68;3.97;;;30.60;99.90;;;;;;5060352;28;20273;-73
2021/08/30 11:45:10;;;;;;;10.55;3.78;;;30.40;99.90;;;;;;5043404;28;20564;-73
2021/08/30 11:47:38;;;;;;;12.88;3.72;;;30.50;99.90;;;;;;5059093;28;20543;-72
2021/08/30 11:50:09;;;;;;;10.77;3.45;;;30.40;99.90;;;;;;5043710;28;20176;-72
2021/08/30 11:52:41;;;;;;;9.63;4.28;;;30.20;99.90;;;;;;5056070;28;20229;-73
2021/08/30 11:55:18;;;;;;;13.90;3.75;;;30.30;99.90;;;;;;5055842;28;20301;-74
2021/08/30 11:58:06;;;;;;;18.52;3.92;;;30.40;99.90;;;;;;5059764;28;20643;-72
2021/08/30 12:00:32;;;;;;;14.80;3.53;;;30.70;99.90;;;;;;5060056;28;20198;-73
2021/08/30 12:03:12;;;;;;;9.93;4.05;;;30.50;99.90;;;;;;5043124;28;20179;-74
2021/08/30 12:05:42;;;;;;;10.65;3.63;;;30.50;99.90;;;;;;5057835;28;20217;-72
2021/08/30 12:08:10;;;;;;;9.32;3.53;;;30.50;99.90;;;;;;5059255;28;20182;-73
2021/08/30 12:10:37;;;;;;;11.98;3.97;;;30.50;99.90;;;;;;5041742;28;20191;-74
2021/08/30 12:15:33;;;;;;;14.40;3.88;;;30.50;99.90;;;;;;5056606;28;20314;-74
2021/08/30 12:18:02;;;;;;;10.07;3.88;;;30.50;99.90;;;;;;5056617;28;20222;-73
2021/08/30 12:20:37;;;;;;;8.70;3.75;;;30.50;99.90;;;;;;5058896;28;20312;-73
2021/08/30 12:23:07;;;;;;;7.13;3.83;;;30.40;99.90;;;;;;5058033;28;20269;-72
2021/08/30 12:25:41;;;;;;;16.83;3.80;;;30.50;99.90;;;;;;5050829;28;20521;-73
2021/08/30 12:28:14;;;;;;;13.07;3.65;;;30.50;99.90;;;;;;5036533;28;20229;-73
2021/08/30 12:30:47;;;;;;;10.13;3.80;;;30.30;99.90;;;;;;5056250;28;20186;-73
2021/08/30 12:33:17;;;;;;;15.90;4.18;;;30.10;99.90;;;;;;5059727;28;20175;-72
2021/08/30 12:35:50;;;;;;;11.52;3.67;;;29.90;99.90;;;;;;5059753;28;20322;-75
2021/08/30 12:38:23;;;;;;;15.27;4.18;;;29.70;99.90;;;;;;5044549;28;20191;-72
2021/08/30 12:40:57;;;;;;;10.60;4.07;;;29.90;99.90;;;;;;5047339;28;20190;-73
2021/08/30 12:43:26;;;;;;;7.28;3.70;;;29.80;99.90;;;;;;5062829;28;20663;-72
2021/08/30 12:45:55;;;;;;;14.32;3.97;;;29.90;99.90;;;;;;5060245;28;20312;-75
2021/08/30 12:48:24;;;;;;;12.90;3.72;;;29.90;99.90;;;;;;5039121;28;20194;-73
2021/08/30 12:50:51;;;;;;;11.25;3.40;;;30.00;99.90;;;;;;5060629;28;20218;-72
2021/08/30 12:53:19;;;;;;;12.25;4.10;;;29.80;99.90;;;;;;5055041;28;20204;-73
2021/08/30 12:55:46;;;;;;;10.52;3.88;;;29.70;99.90;;;;;;5056923;28;20214;-72